Time;durP1;ratioP1;P1;durP2;ratioP2;P2;SDS_P1;SDS_P2;PMS_P1;PMS_P2;Temp;Humidity;BMP_temperature;BMP_pressure;BME280_temperature;BME280_humidity;BME280_pressure;Samples;Min_cycle;Max_cycle;Signal;HPM_P1;HPM_P2
2023/09/08 00:00:14;;;;;;;9.10;6.03;;;;;;;21.62;60.15;100139.91;4939083;28;20506;-87
2023/09/08 00:02:40;;;;;;;6.88;6.03;;;;;;;21.62;60.25;100135.34;4894622;28;20047;-87
2023/09/08 00:05:07;;;;;;;7.63;5.45;;;;;;;21.61;60.49;100143.66;4949319;28;20570;-87
2023/09/08 00:07:34;;;;;;;8.95;5.60;;;;;;;21.57;60.13;100137.81;4916788;28;20481;-87
2023/09/08 00:10:01;;;;;;;7.95;5.30;;;;;;;21.57;60.20;100135.13;4942337;28;20051;-86
2023/09/08 00:12:28;;;;;;;7.55;5.20;;;;;;;21.57;60.23;100137.81;4958403;28;20117;-86
2023/09/08 00:14:55;;;;;;;8.27;5.88;;;;;;;21.54;60.23;100140.09;4945870;28;20043;-86
2023/09/08 00:17:21;;;;;;;8.35;5.50;;;;;;;21.55;60.19;100137.22;4950500;28;20445;-86
2023/09/08 00:19:48;;;;;;;8.38;5.30;;;;;;;21.53;60.23;100138.44;4928274;28;20057;-86
2023/09/08 00:22:15;;;;;;;5.57;5.00;;;;;;;21.54;60.40;100134.69;4929581;28;20175;-86
2023/09/08 00:24:42;;;;;;;8.38;5.38;;;;;;;21.51;60.25;100135.09;4968436;28;20522;-86
2023/09/08 00:27:09;;;;;;;6.68;5.35;;;;;;;21.45;60.40;100132.16;4932287;28;20053;-85
2023/09/08 00:29:36;;;;;;;6.68;5.03;;;;;;;21.46;60.33;100133.81;4913359;28;20047;-86
2023/09/08 00:32:03;;;;;;;6.32;5.40;;;;;;;21.43;60.45;100136.91;4953424;28;21153;-86
2023/09/08 00:34:30;;;;;;;6.82;4.95;;;;;;;21.41;60.32;100130.88;4968879;28;20065;-86
2023/09/08 00:36:57;;;;;;;6.20;5.00;;;;;;;21.40;60.59;100131.09;4941783;28;20066;-85
2023/09/08 00:39:24;;;;;;;8.50;5.38;;;;;;;21.38;60.53;100131.28;4949264;28;20119;-85
2023/09/08 00:41:51;;;;;;;6.13;4.82;;;;;;;21.36;60.64;100141.41;4943644;28;20047;-86
2023/09/08 00:44:18;;;;;;;8.13;5.72;;;;;;;21.39;60.68;100137.50;4959541;28;20490;-86
2023/09/08 00:46:46;;;;;;;8.93;5.25;;;;;;;21.34;60.51;100139.94;4942570;28;20499;-87
2023/09/08 00:49:13;;;;;;;6.90;4.90;;;;;;;21.32;60.52;100139.31;4943210;28;20450;-86
2023/09/08 00:51:40;;;;;;;7.78;5.53;;;;;;;21.29;60.58;100140.53;4968876;28;20035;-85
2023/09/08 00:54:08;;;;;;;7.85;5.85;;;;;;;21.28;60.68;100135.34;4965971;28;20042;-85
2023/09/08 00:56:37;;;;;;;7.47;5.40;;;;;;;21.20;60.75;100139.88;4940229;28;20047;-86
2023/09/08 00:59:04;;;;;;;7.05;5.30;;;;;;;21.22;60.53;100143.22;4931540;28;20102;-85
2023/09/08 01:01:31;;;;;;;7.07;5.28;;;;;;;21.19;60.70;100131.94;4952826;28;20061;-85
2023/09/08 01:03:58;;;;;;;8.13;5.53;;;;;;;21.19;60.78;100131.94;4932752;28;20435;-85
2023/09/08 01:06:25;;;;;;;7.88;5.05;;;;;;;21.18;60.93;100139.22;4929615;28;20926;-86
2023/09/08 01:08:52;;;;;;;7.97;5.47;;;;;;;21.19;60.79;100138.22;4969412;28;20051;-85
2023/09/08 01:11:20;;;;;;;6.03;5.40;;;;;;;21.16;60.82;100141.28;4937952;28;20475;-85
2023/09/08 01:13:47;;;;;;;7.82;5.32;;;;;;;21.11;60.92;100137.50;4928259;28;20173;-86
2023/09/08 01:16:14;;;;;;;8.25;5.68;;;;;;;21.09;60.69;100132.31;4938497;28;20134;-86
2023/09/08 01:18:41;;;;;;;8.10;5.18;;;;;;;21.11;60.87;100140.22;4944050;28;20063;-86
2023/09/08 01:21:24;;;;;;;8.23;5.28;;;;;;;20.99;61.13;100142.63;4952214;28;20050;-86
2023/09/08 01:24:03;;;;;;;;;;;;;;;20.75;61.82;100139.31;4924218;28;20047;-86
2023/09/08 01:26:34;;;;;;;7.63;5.45;;;;;;;21.00;60.98;100136.19;4928177;28;20012;-86
2023/09/08 01:29:02;;;;;;;6.20;5.43;;;;;;;21.02;60.76;100143.06;4927051;28;20057;-86
2023/09/08 01:31:29;;;;;;;11.43;5.57;;;;;;;21.00;61.08;100136.19;4928125;28;20157;-86
2023/09/08 01:33:59;;;;;;;6.65;5.53;;;;;;;20.99;60.85;100138.06;4926426;28;20750;-86
2023/09/08 01:36:26;;;;;;;7.47;5.43;;;;;;;20.96;60.76;100140.31;4932137;28;20486;-86
2023/09/08 01:38:53;;;;;;;10.20;5.28;;;;;;;20.95;61.06;100133.25;4907078;28;20045;-86
2023/09/08 01:41:20;;;;;;;9.57;5.20;;;;;;;20.94;60.98;100139.66;4968636;28;20059;-86
2023/09/08 01:43:46;;;;;;;7.10;5.47;;;;;;;20.92;61.05;100134.47;4932976;28;20066;-86
2023/09/08 01:46:13;;;;;;;7.45;5.43;;;;;;;20.91;61.05;100137.34;4912948;28;20077;-86
2023/09/08 01:48:40;;;;;;;7.05;5.35;;;;;;;20.91;61.40;100134.66;4945859;28;20462;-86
2023/09/08 01:51:07;;;;;;;8.15;5.53;;;;;;;20.88;61.10;100121.56;4953392;28;20053;-86
2023/09/08 01:53:34;;;;;;;7.47;5.00;;;;;;;20.84;61.13;100129.22;4954947;28;20396;-86
2023/09/08 01:56:01;;;;;;;6.18;5.57;;;;;;;20.86;61.25;100132.53;4928786;28;20120;-86
2023/09/08 01:58:27;;;;;;;8.63;5.53;;;;;;;20.81;61.21;100132.28;4943793;28;20673;-86
2023/09/08 02:00:54;;;;;;;7.43;5.22;;;;;;;20.80;61.21;100128.75;4930955;28;20065;-86
2023/09/08 02:03:21;;;;;;;7.60;5.60;;;;;;;20.78;61.47;100127.28;4927885;28;20043;-86
2023/09/08 02:05:48;;;;;;;6.13;5.10;;;;;;;20.83;61.20;100137.50;4940454;28;20047;-86
2023/09/08 02:08:15;;;;;;;6.10;5.28;;;;;;;20.75;61.42;100125.81;4940348;28;20406;-86
2023/09/08 02:10:41;;;;;;;6.90;5.28;;;;;;;20.76;61.57;100124.81;4955590;28;20129;-86
2023/09/08 02:13:08;;;;;;;7.90;5.35;;;;;;;20.75;61.61;100123.13;4924276;28;20050;-86
2023/09/08 02:15:36;;;;;;;6.20;5.47;;;;;;;20.75;61.38;100119.59;4937662;28;20047;-86
2023/09/08 02:18:03;;;;;;;8.18;5.50;;;;;;;20.70;61.73;100120.16;4941357;28;20843;-85
2023/09/08 02:20:30;;;;;;;8.38;6.03;;;;;;;20.70;61.83;100128.25;4957229;28;20133;-85
2023/09/08 02:22:58;;;;;;;6.60;5.03;;;;;;;20.68;61.39;100130.31;4939023;28;20111;-86
2023/09/08 02:25:25;;;;;;;6.43;5.45;;;;;;;20.66;61.66;100129.69;4969582;28;20059;-85
2023/09/08 02:27:51;;;;;;;7.43;5.38;;;;;;;20.65;61.55;100128.00;4926054;28;20047;-86
2023/09/08 02:30:18;;;;;;;6.25;5.55;;;;;;;20.64;61.67;100122.84;4911701;28;20751;-86
2023/09/08 02:32:45;;;;;;;6.53;5.30;;;;;;;20.66;61.21;100127.00;4958351;28;20046;-86
2023/09/08 02:35:13;;;;;;;7.00;5.22;;;;;;;20.61;61.47;100121.34;4921583;28;20051;-86
2023/09/08 02:37:40;;;;;;;6.55;5.13;;;;;;;20.59;61.53;100124.22;4945212;28;20058;-86
2023/09/08 02:40:07;;;;;;;7.28;5.50;;;;;;;20.59;61.92;100115.31;4926638;28;20410;-86
2023/09/08 02:42:36;;;;;;;7.65;5.25;;;;;;;20.54;61.81;100118.59;4945691;28;20046;-86
2023/09/08 02:45:03;;;;;;;8.95;5.65;;;;;;;20.54;61.89;100115.88;4965316;28;20051;-86
2023/09/08 02:47:30;;;;;;;7.35;5.65;;;;;;;20.52;61.84;100123.31;4924166;28;20074;-86
2023/09/08 02:49:59;;;;;;;8.15;5.75;;;;;;;20.53;61.78;100121.44;4940728;28;20070;-86
2023/09/08 02:52:25;;;;;;;7.80;5.57;;;;;;;20.51;62.01;100123.50;4942509;28;20047;-85
2023/09/08 02:54:52;;;;;;;8.40;5.07;;;;;;;20.50;61.91;100113.72;4929516;28;20043;-86
2023/09/08 02:57:19;;;;;;;7.72;5.50;;;;;;;20.52;62.10;100122.47;4925128;28;20106;-86
2023/09/08 02:59:51;;;;;;;8.90;5.72;;;;;;;20.45;61.86;100116.19;4943138;28;20820;-86
2023/09/08 03:02:18;;;;;;;7.55;6.18;;;;;;;20.46;61.98;100110.59;4942376;28;20051;-86
2023/09/08 03:04:45;;;;;;;7.45;5.60;;;;;;;20.38;62.13;100110.75;4956212;28;20507;-86
2023/09/08 03:07:11;;;;;;;8.10;6.20;;;;;;;20.41;62.02;100110.34;4941487;28;20046;-87
2023/09/08 03:09:43;;;;;;;6.45;5.70;;;;;;;20.34;62.25;100117.53;4927135;28;20470;-86
2023/09/08 03:12:10;;;;;;;9.38;5.60;;;;;;;20.35;62.08;100116.50;4933772;28;20067;-86
2023/09/08 03:14:37;;;;;;;6.90;5.55;;;;;;;20.32;61.89;100111.50;4921360;28;20050;-86
2023/09/08 03:17:03;;;;;;;6.38;5.15;;;;;;;20.30;62.21;100111.69;4926832;28;20375;-86
2023/09/08 03:19:30;;;;;;;8.23;6.07;;;;;;;20.30;62.21;100121.63;4925139;28;20071;-86
2023/09/08 03:21:57;;;;;;;9.90;5.25;;;;;;;20.25;62.26;100116.84;4949717;28;20070;-85
2023/09/08 03:24:25;;;;;;;10.40;5.43;;;;;;;20.23;62.01;100118.88;4937103;28;20055;-86
2023/09/08 03:26:51;;;;;;;7.18;5.10;;;;;;;20.25;62.30;100127.63;4924389;28;20065;-86
2023/09/08 03:29:18;;;;;;;9.40;5.50;;;;;;;20.22;62.21;100122.59;4954941;28;20054;-86
2023/09/08 03:31:45;;;;;;;6.25;5.65;;;;;;;20.22;62.10;100119.06;4958161;28;20054;-86
2023/09/08 03:34:13;;;;;;;7.38;6.10;;;;;;;20.23;61.99;100120.75;4918277;28;20043;-85
2023/09/08 03:36:40;;;;;;;6.57;5.28;;;;;;;20.23;62.32;100121.59;4941890;28;20046;-85
2023/09/08 03:39:09;;;;;;;11.25;5.88;;;;;;;20.24;62.10;100127.81;4938281;28;20050;-86
2023/09/08 03:41:37;;;;;;;6.22;5.60;;;;;;;20.22;62.33;100124.47;4935335;28;20055;-86
2023/09/08 03:44:04;;;;;;;6.88;5.20;;;;;;;20.19;62.13;100124.84;4943327;28;20051;-86
2023/09/08 03:46:30;;;;;;;5.82;5.20;;;;;;;20.16;61.93;100126.06;4924310;28;20055;-86
2023/09/08 03:49:00;;;;;;;6.60;4.80;;;;;;;20.11;61.78;100120.41;4968968;28;20045;-86
2023/09/08 03:51:28;;;;;;;9.05;6.13;;;;;;;20.12;62.08;100114.84;4926235;28;20403;-86
2023/09/08 03:53:55;;;;;;;6.95;5.57;;;;;;;20.09;61.93;100123.28;4928271;28;20051;-86
2023/09/08 03:56:21;;;;;;;7.28;5.43;;;;;;;20.07;62.34;100116.41;4923603;28;20494;-85
2023/09/08 03:58:48;;;;;;;5.97;5.35;;;;;;;20.06;62.06;100120.97;4947180;28;20042;-86
2023/09/08 04:01:15;;;;;;;6.75;5.28;;;;;;;20.02;62.17;100116.16;4927024;28;20055;-86
2023/09/08 04:03:43;;;;;;;8.23;4.80;;;;;;;20.02;62.29;100124.22;4908974;28;20090;-86
2023/09/08 04:06:11;;;;;;;8.88;5.70;;;;;;;19.98;62.67;100115.72;4963481;28;20139;-86
2023/09/08 04:08:38;;;;;;;7.57;5.70;;;;;;;20.01;62.61;100122.56;4967370;28;20054;-85
2023/09/08 04:11:05;;;;;;;8.23;5.60;;;;;;;20.01;62.68;100120.72;4946794;28;20057;-86
2023/09/08 04:13:32;;;;;;;8.70;5.47;;;;;;;19.98;62.37;100121.09;4915856;28;20051;-86
2023/09/08 04:15:59;;;;;;;9.13;5.90;;;;;;;19.93;62.65;100124.34;4934921;28;20087;-84
2023/09/08 04:18:27;;;;;;;8.20;5.50;;;;;;;19.91;62.42;100130.97;4928233;28;20055;-84
2023/09/08 04:20:54;;;;;;;7.63;5.70;;;;;;;19.87;62.73;100133.22;4909802;28;20051;-84
2023/09/08 04:23:20;;;;;;;8.77;5.50;;;;;;;19.87;62.75;100138.59;4961403;28;20055;-84
2023/09/08 04:25:48;;;;;;;8.60;5.75;;;;;;;19.84;62.86;100133.56;4943346;28;20066;-85
2023/09/08 04:28:14;;;;;;;8.00;5.63;;;;;;;19.82;62.78;100135.63;4957272;28;20098;-84
2023/09/08 04:30:41;;;;;;;8.60;5.55;;;;;;;19.84;63.06;100136.25;4933293;28;20052;-83
2023/09/08 04:33:08;;;;;;;7.93;5.40;;;;;;;19.86;62.98;100133.38;4924319;28;20059;-84
2023/09/08 04:35:35;;;;;;;7.25;5.88;;;;;;;19.85;63.20;100137.13;4921548;28;20051;-84
2023/09/08 04:38:03;;;;;;;7.50;6.00;;;;;;;19.86;63.44;100136.09;4937366;28;20047;-84
2023/09/08 04:40:30;;;;;;;10.23;5.97;;;;;;;19.83;63.24;100129.22;4940941;28;20039;-84
2023/09/08 04:42:57;;;;;;;8.32;5.68;;;;;;;19.81;63.22;100131.25;4930274;28;20051;-84
2023/09/08 04:45:24;;;;;;;8.52;5.80;;;;;;;19.78;63.29;100134.34;4969737;28;20054;-84
2023/09/08 04:47:51;;;;;;;8.77;4.85;;;;;;;19.75;63.23;100132.03;4926135;28;20124;-84
2023/09/08 04:50:19;;;;;;;7.57;5.05;;;;;;;19.73;63.23;100134.06;4962254;28;20396;-84
2023/09/08 04:52:46;;;;;;;6.20;5.45;;;;;;;19.71;63.34;100138.78;4958332;28;20078;-84
2023/09/08 04:55:14;;;;;;;6.05;5.43;;;;;;;19.70;63.24;100140.66;4917781;28;20049;-84
2023/09/08 04:57:41;;;;;;;6.90;5.35;;;;;;;19.70;63.20;100143.34;4960523;28;20054;-84
2023/09/08 05:00:08;;;;;;;6.82;5.60;;;;;;;19.70;63.71;100156.00;4945224;28;20054;-84
2023/09/08 05:02:35;;;;;;;9.05;5.93;;;;;;;19.65;63.69;100145.75;4928347;28;20074;-84
2023/09/08 05:05:04;;;;;;;7.45;5.97;;;;;;;19.67;63.99;100149.13;4930519;28;20875;-84
2023/09/08 05:07:31;;;;;;;5.95;5.30;;;;;;;19.65;63.94;100143.06;4913001;28;20054;-84
2023/09/08 05:09:57;;;;;;;9.40;6.18;;;;;;;19.65;63.88;100161.06;4928809;28;20043;-83
2023/09/08 05:12:28;;;;;;;7.22;5.55;;;;;;;19.63;64.04;100158.56;4956741;28;20658;-83
2023/09/08 05:14:59;;;;;;;8.48;5.90;;;;;;;19.62;64.15;100162.28;4943474;28;20047;-84
2023/09/08 05:17:27;;;;;;;8.45;5.85;;;;;;;19.62;64.20;100164.97;4927716;28;20047;-84
2023/09/08 05:19:54;;;;;;;10.23;6.05;;;;;;;19.61;64.06;100162.47;4928960;28;20126;-83
2023/09/08 05:22:20;;;;;;;6.70;5.93;;;;;;;19.59;63.90;100157.28;4959378;28;20047;-83
2023/09/08 05:24:49;;;;;;;7.95;6.07;;;;;;;19.59;64.08;100157.28;4941882;28;20039;-83
2023/09/08 05:27:16;;;;;;;7.72;5.72;;;;;;;19.58;64.13;100158.28;4958681;28;20047;-83
2023/09/08 05:29:42;;;;;;;7.57;5.85;;;;;;;19.57;64.25;100161.19;4960605;28;20058;-83
2023/09/08 05:32:09;;;;;;;7.90;6.22;;;;;;;19.59;64.40;100159.13;4945153;28;20487;-84
2023/09/08 05:34:37;;;;;;;9.52;5.95;;;;;;;19.62;64.53;100159.59;4907306;28;20062;-83
2023/09/08 05:37:05;;;;;;;8.90;6.35;;;;;;;19.63;64.54;100163.13;4945329;28;20103;-83
2023/09/08 05:39:33;;;;;;;7.57;6.25;;;;;;;19.60;64.98;100152.72;4915127;28;20066;-83
2023/09/08 05:41:59;;;;;;;11.95;6.78;;;;;;;19.63;65.28;100166.63;4945804;28;20372;-83
2023/09/08 05:44:26;;;;;;;12.77;6.65;;;;;;;19.63;65.60;100166.63;4927529;28;20047;-83
2023/09/08 05:46:54;;;;;;;9.63;6.70;;;;;;;19.66;65.69;100160.03;4953459;28;20503;-84
2023/09/08 05:49:22;;;;;;;10.85;7.68;;;;;;;19.72;65.36;100162.03;4954514;28;20054;-83
2023/09/08 05:51:49;;;;;;;12.50;6.43;;;;;;;19.72;65.27;100157.47;4922595;28;20039;-84
2023/09/08 05:54:17;;;;;;;11.13;6.63;;;;;;;19.78;65.33;100165.84;4956705;28;20138;-83
2023/09/08 05:56:43;;;;;;;14.93;7.13;;;;;;;19.73;65.65;100158.31;4935505;28;20055;-83
2023/09/08 05:59:11;;;;;;;12.25;6.35;;;;;;;19.76;64.57;100163.31;4911986;28;20047;-84
2023/09/08 06:01:39;;;;;;;10.05;5.93;;;;;;;19.76;64.81;100159.78;4920607;28;20053;-84
2023/09/08 06:04:08;;;;;;;12.30;6.60;;;;;;;19.79;64.58;100164.81;4928467;28;20062;-84
2023/09/08 06:06:35;;;;;;;8.85;6.32;;;;;;;19.81;64.36;100168.16;4957283;28;20062;-84
2023/09/08 06:09:02;;;;;;;11.18;6.75;;;;;;;19.85;64.60;100164.06;4966793;28;20427;-84
2023/09/08 06:11:29;;;;;;;11.85;7.45;;;;;;;19.85;64.65;100167.59;4957443;28;20143;-84
2023/09/08 06:13:58;;;;;;;9.40;6.60;;;;;;;19.88;64.40;100166.38;4956220;28;20067;-84
2023/09/08 06:16:29;;;;;;;8.38;6.57;;;;;;;19.90;64.33;100169.72;4942234;28;20530;-84
2023/09/08 06:18:56;;;;;;;8.63;6.28;;;;;;;19.90;64.42;100170.56;4891539;28;20063;-83
2023/09/08 06:21:23;;;;;;;9.45;6.68;;;;;;;19.93;64.47;100177.44;4946518;28;20074;-84
2023/09/08 06:23:50;;;;;;;10.27;6.50;;;;;;;19.93;64.15;100169.34;4928168;28;20403;-84
2023/09/08 06:26:17;;;;;;;12.68;6.93;;;;;;;19.94;64.44;100171.00;4941885;28;20082;-83
2023/09/08 06:28:45;;;;;;;8.45;6.72;;;;;;;19.98;64.49;100169.63;4939550;28;20652;-84
2023/09/08 06:31:14;;;;;;;8.85;6.82;;;;;;;19.99;64.85;100165.06;4945335;28;20673;-84
2023/09/08 06:33:42;;;;;;;11.50;6.70;;;;;;;20.00;64.79;100164.03;4964190;28;20051;-83
2023/09/08 06:36:09;;;;;;;9.40;5.85;;;;;;;20.03;64.74;100164.50;4930726;28;20440;-83
2023/09/08 06:38:36;;;;;;;10.35;6.82;;;;;;;20.06;65.26;100176.75;4930050;28;20054;-84
2023/09/08 06:41:11;;;;;;;11.73;7.03;;;;;;;20.02;65.45;100172.75;4956234;28;20051;-84
2023/09/08 06:43:38;;;;;;;9.13;6.85;;;;;;;20.11;65.12;100177.03;4943598;28;20043;-83
2023/09/08 06:46:12;;;;;;;8.60;6.93;;;;;;;20.11;65.21;100164.38;4939080;28;20049;-84
2023/09/08 06:48:39;;;;;;;14.45;7.18;;;;;;;20.09;65.01;100166.41;4909076;28;20533;-84
2023/09/08 06:51:06;;;;;;;8.23;6.97;;;;;;;20.14;64.89;100169.38;4952469;28;22102;-84
2023/09/08 06:53:34;;;;;;;12.55;6.32;;;;;;;20.19;65.10;100168.81;4930382;28;20047;-85
2023/09/08 06:56:01;;;;;;;10.45;7.43;;;;;;;20.26;64.94;100166.22;4918294;28;20133;-85
2023/09/08 06:58:30;;;;;;;15.20;6.78;;;;;;;20.29;65.10;100163.13;4925428;28;20066;-85
2023/09/08 07:00:57;;;;;;;9.90;6.28;;;;;;;20.34;65.30;100166.06;4914450;28;20130;-85
2023/09/08 07:03:26;;;;;;;8.35;6.28;;;;;;;20.33;65.44;100161.72;4942758;28;20086;-85
2023/09/08 07:05:55;;;;;;;9.77;7.20;;;;;;;20.38;65.47;100162.81;4952589;28;20039;-86
2023/09/08 07:08:22;;;;;;;9.73;6.47;;;;;;;20.41;65.62;100160.75;4930057;28;20070;-85
2023/09/08 07:10:53;;;;;;;12.48;7.10;;;;;;;20.50;65.88;100165.00;4922796;28;20046;-86
2023/09/08 07:13:20;;;;;;;10.65;6.68;;;;;;;20.52;66.15;100162.94;4931611;28;20089;-89
2023/09/08 07:15:49;;;;;;;8.50;6.40;;;;;;;20.59;65.56;100164.72;4898605;28;20066;-89
2023/09/08 07:18:17;;;;;;;10.48;6.43;;;;;;;20.63;65.91;100172.41;4938739;28;20053;-90
2023/09/08 07:20:48;;;;;;;9.40;6.20;;;;;;;20.66;65.52;100167.47;4960627;28;20141;-89
2023/09/08 07:23:20;;;;;;;9.13;6.45;;;;;;;20.73;65.07;100171.06;4928461;28;20065;-90
2023/09/08 07:25:50;;;;;;;10.10;6.45;;;;;;;20.74;64.74;100170.03;4927231;28;20054;-90
2023/09/08 07:28:20;;;;;;;8.65;6.28;;;;;;;20.73;64.57;100170.22;4931211;28;20102;-89
2023/09/08 07:31:05;;;;;;;8.00;6.45;;;;;;;20.72;65.05;100171.25;4912166;28;20090;-90
2023/09/08 07:33:36;;;;;;;9.05;6.72;;;;;;;20.78;64.98;100163.19;4934140;28;22603;-87
2023/09/08 07:36:05;;;;;;;9.60;6.65;;;;;;;20.82;64.21;100163.66;4927258;28;20062;-88
2023/09/08 07:38:33;;;;;;;11.60;6.05;;;;;;;20.83;64.12;100159.09;4932603;28;20066;-93
2023/09/08 07:41:01;;;;;;;8.25;6.75;;;;;;;20.88;64.61;100160.19;4935246;28;20122;-92
2023/09/08 07:43:31;;;;;;;7.15;5.65;;;;;;;20.95;64.81;100168.34;4919469;28;20055;-91
2023/09/08 07:45:59;;;;;;;8.85;6.03;;;;;;;20.96;64.40;100167.31;4933674;28;20046;-91
2023/09/08 07:48:26;;;;;;;9.30;6.38;;;;;;;20.97;63.96;100161.72;4954624;28;20042;-93
2023/09/08 07:50:53;;;;;;;8.60;6.60;;;;;;;21.00;63.78;100153.22;4931826;28;20073;-91
2023/09/08 07:53:20;;;;;;;10.07;6.53;;;;;;;21.06;63.87;100158.88;4930255;28;20079;-92
2023/09/08 07:55:47;;;;;;;9.35;6.72;;;;;;;21.08;63.78;100151.41;4926835;28;20062;-91
2023/09/08 07:58:14;;;;;;;7.13;5.55;;;;;;;21.09;63.96;100147.66;4944202;28;20047;-88
2023/09/08 08:00:40;;;;;;;12.55;5.80;;;;;;;21.14;64.02;100148.78;4928714;28;20047;-88
2023/09/08 08:03:08;;;;;;;8.52;5.63;;;;;;;21.17;63.85;100150.25;4928196;28;20827;-91
2023/09/08 08:05:35;;;;;;;11.40;6.60;;;;;;;21.21;63.81;100149.63;4968450;28;20095;-90
2023/09/08 08:08:02;;;;;;;7.45;6.07;;;;;;;21.26;63.39;100154.44;4972475;28;20051;-88
2023/09/08 08:10:30;;;;;;;7.38;5.97;;;;;;;21.28;63.35;100154.25;4913360;28;20039;-90
2023/09/08 08:12:57;;;;;;;8.95;6.00;;;;;;;21.31;63.23;100151.97;4899205;28;20430;-91
2023/09/08 08:15:35;;;;;;;7.85;5.60;;;;;;;21.29;63.16;100150.50;4931548;28;20053;-91
2023/09/08 08:18:03;;;;;;;6.97;5.70;;;;;;;21.36;63.17;100148.69;4955442;28;20498;-91
2023/09/08 08:20:34;;;;;;;14.05;6.15;;;;;;;21.38;63.32;100147.50;4947804;28;20563;-89
2023/09/08 08:23:02;;;;;;;8.75;5.47;;;;;;;21.46;63.46;100152.72;4915047;28;20562;-92
2023/09/08 08:25:29;;;;;;;9.32;6.32;;;;;;;21.50;63.44;100149.63;4947171;28;20043;-92
2023/09/08 08:27:58;;;;;;;10.50;6.50;;;;;;;21.51;63.13;100144.03;4934217;28;20051;-93
2023/09/08 08:30:25;;;;;;;9.90;6.45;;;;;;;21.56;62.75;100146.97;4946366;28;20065;-93
2023/09/08 08:32:53;;;;;;;10.63;6.50;;;;;;;21.59;63.11;100145.72;4930087;28;20062;-93
2023/09/08 08:35:20;;;;;;;7.40;5.10;;;;;;;21.62;62.79;100143.44;4915927;28;20047;-92
2023/09/08 08:37:47;;;;;;;9.10;5.60;;;;;;;21.65;62.09;100136.81;4960752;28;20490;-92
2023/09/08 08:40:16;;;;;;;7.13;5.75;;;;;;;21.68;62.53;100139.97;4932832;28;20491;-92
2023/09/08 08:42:44;;;;;;;8.65;5.50;;;;;;;21.72;62.11;100137.69;4935935;28;20368;-93
2023/09/08 08:45:11;;;;;;;8.63;5.45;;;;;;;21.74;62.51;100141.03;4948571;28;20101;-87
2023/09/08 08:47:39;;;;;;;6.95;5.10;;;;;;;21.78;62.59;100141.44;4943050;28;20050;-90
2023/09/08 08:50:10;;;;;;;5.82;5.20;;;;;;;21.82;62.46;100135.44;4960072;28;20035;-89
2023/09/08 08:52:38;;;;;;;5.60;4.88;;;;;;;21.84;62.21;100146.06;4932307;28;20043;-88
2023/09/08 08:55:08;;;;;;;8.98;6.32;;;;;;;21.87;62.06;100132.13;4946981;28;20067;-87
2023/09/08 08:57:37;;;;;;;8.20;5.72;;;;;;;21.91;62.16;100136.13;4952924;28;20453;-88
2023/09/08 09:00:10;;;;;;;7.28;4.78;;;;;;;21.90;61.70;100126.31;4948561;28;20554;-87
2023/09/08 09:02:39;;;;;;;6.95;5.07;;;;;;;21.95;62.47;100131.13;4920994;28;20074;-87
2023/09/08 09:05:12;;;;;;;8.50;6.07;;;;;;;21.94;62.41;100129.47;4947961;28;20035;-87
2023/09/08 09:07:43;;;;;;;8.18;5.28;;;;;;;21.96;62.19;100130.09;4916167;28;20043;-87
2023/09/08 09:10:10;;;;;;;8.15;5.70;;;;;;;21.99;62.06;100132.41;4966794;28;20074;-87
2023/09/08 09:12:40;;;;;;;6.57;5.43;;;;;;;22.00;62.07;100120.53;4945923;28;20563;-88
2023/09/08 09:15:11;;;;;;;9.32;5.70;;;;;;;22.02;61.91;100123.88;4945105;28;20833;-88
2023/09/08 09:17:38;;;;;;;8.80;5.43;;;;;;;22.03;61.68;100125.53;4961976;28;20039;-92
2023/09/08 09:20:20;;;;;;;7.03;5.20;;;;;;;22.00;62.03;100134.88;4954517;28;20055;-87
2023/09/08 09:22:49;;;;;;;5.78;5.28;;;;;;;22.08;62.50;100121.19;4932586;28;20050;-93
2023/09/08 09:25:40;;;;;;;6.15;5.38;;;;;;;22.03;61.86;100122.81;4969897;28;20042;-93
2023/09/08 09:28:07;;;;;;;7.75;5.80;;;;;;;22.11;61.93;100128.91;4931081;28;20043;-93
2023/09/08 09:30:54;;;;;;;7.50;5.05;;;;;;;22.08;62.07;100125.75;4955855;28;20053;-93
2023/09/08 09:33:22;;;;;;;8.45;5.55;;;;;;;22.17;62.08;100135.34;4942751;28;20047;-93
2023/09/08 09:35:53;;;;;;;7.43;5.82;;;;;;;22.16;61.68;100136.41;4913940;28;20142;-92
2023/09/08 09:38:21;;;;;;;6.43;5.63;;;;;;;22.20;61.78;100131.44;4960928;28;20494;-93
2023/09/08 09:40:48;;;;;;;7.32;5.60;;;;;;;22.25;61.91;100137.91;4948524;28;20121;-93
2023/09/08 09:43:16;;;;;;;6.18;5.32;;;;;;;22.27;61.15;100141.25;4913401;28;20063;-92
2023/09/08 09:45:44;;;;;;;7.30;5.15;;;;;;;22.28;61.06;100133.94;4931018;28;20095;-93
2023/09/08 09:48:11;;;;;;;8.68;6.03;;;;;;;22.30;61.25;100129.16;4930348;28;20046;-92
2023/09/08 09:50:40;;;;;;;6.43;5.68;;;;;;;22.31;61.18;100128.97;4912629;28;20131;-93
2023/09/08 09:53:12;;;;;;;6.30;5.35;;;;;;;22.30;60.85;100113.75;4930153;28;20113;-92
2023/09/08 09:55:40;;;;;;;;;;;;;;;22.18;61.06;100109.97;4912932;28;20125;-94
2023/09/08 09:58:08;;;;;;;8.65;5.85;;;;;;;22.34;61.10;100108.78;4935830;28;19922;-92
2023/09/08 10:00:35;;;;;;;6.93;5.35;;;;;;;22.39;61.36;100110.84;4913011;28;20127;-91
2023/09/08 10:03:04;;;;;;;10.23;5.65;;;;;;;22.40;61.00;100107.13;4923548;28;20043;-91
2023/09/08 10:05:31;;;;;;;6.22;5.55;;;;;;;22.45;61.41;100110.06;4925200;28;20039;-92
2023/09/08 10:07:58;;;;;;;8.45;5.35;;;;;;;22.50;60.81;100105.69;4918786;28;20062;-91
2023/09/08 10:10:28;;;;;;;8.10;5.18;;;;;;;22.52;60.27;100097.38;4929580;28;20070;-92
2023/09/08 10:13:00;;;;;;;9.82;5.40;;;;;;;22.53;60.44;100096.31;4895112;28;20131;-91
2023/09/08 10:15:28;;;;;;;12.07;6.33;;;;;;;22.56;59.80;100095.06;4914209;28;20055;-91
2023/09/08 10:17:57;;;;;;;6.00;5.40;;;;;;;22.60;60.02;100094.44;4949636;28;20142;-91
2023/09/08 10:20:24;;;;;;;7.35;5.30;;;;;;;22.61;60.19;100090.69;4931024;28;20130;-94
2023/09/08 10:22:56;;;;;;;7.43;5.70;;;;;;;22.65;60.49;100096.53;4915267;28;20079;-94
2023/09/08 10:25:25;;;;;;;7.97;5.75;;;;;;;22.68;59.76;100091.53;4921190;28;20043;-94
2023/09/08 10:27:54;;;;;;;5.60;5.00;;;;;;;22.72;60.09;100090.06;4936423;28;20380;-93
2023/09/08 10:30:21;;;;;;;8.70;5.07;;;;;;;22.75;60.61;100095.06;4958363;28;20524;-94
2023/09/08 10:32:49;;;;;;;7.22;5.22;;;;;;;22.78;60.11;100091.09;4905981;28;20055;-95
2023/09/08 10:35:19;;;;;;;8.50;5.45;;;;;;;22.78;59.93;100091.09;4918720;28;20054;-92
2023/09/08 10:37:46;;;;;;;6.45;4.88;;;;;;;22.77;59.91;100092.16;4941407;28;20422;-95
2023/09/08 10:40:23;;;;;;;5.35;4.63;;;;;;;22.77;59.57;100094.88;4935599;28;20447;-94
2023/09/08 10:43:09;;;;;;;8.10;5.65;;;;;;;22.75;59.70;100088.81;4907984;28;20054;-87
2023/09/08 10:45:35;;;;;;;;;;;;;;;22.68;60.12;100090.69;4944614;28;20054;-88
2023/09/08 10:48:02;;;;;;;9.10;5.30;;;;;;;22.85;59.37;100086.53;4938299;28;19985;-88
2023/09/08 10:50:34;;;;;;;6.90;5.18;;;;;;;22.87;59.12;100081.75;4928248;28;20053;-88
2023/09/08 10:53:14;;;;;;;6.57;5.22;;;;;;;22.88;58.80;100083.38;4925418;28;20055;-88
2023/09/08 10:55:47;;;;;;;7.35;5.20;;;;;;;22.93;59.12;100075.47;4960272;28;20122;-89
2023/09/08 10:58:35;;;;;;;5.88;4.60;;;;;;;22.96;59.37;100076.91;4954540;28;20043;-92
2023/09/08 11:01:06;;;;;;;6.72;4.63;;;;;;;23.02;59.50;100076.09;4917297;28;20130;-91
2023/09/08 11:03:41;;;;;;;6.68;5.40;;;;;;;23.03;58.80;100076.97;4957264;28;20070;-92
2023/09/08 11:06:09;;;;;;;7.80;5.30;;;;;;;23.09;59.26;100079.63;4945889;28;20525;-93
2023/09/08 11:08:42;;;;;;;6.75;5.47;;;;;;;23.15;58.85;100083.38;4932275;28;20054;-90
2023/09/08 11:11:13;;;;;;;7.20;4.80;;;;;;;23.16;58.49;100075.03;4931845;28;20149;-93
2023/09/08 11:13:40;;;;;;;7.45;4.80;;;;;;;23.23;58.97;100074.19;4944679;28;20515;-92
2023/09/08 11:16:07;;;;;;;6.38;5.30;;;;;;;23.25;58.84;100072.91;4965953;28;20127;-91
2023/09/08 11:18:34;;;;;;;6.68;5.18;;;;;;;23.28;58.14;100068.94;4962061;28;20049;-93
2023/09/08 11:21:04;;;;;;;8.82;5.55;;;;;;;23.28;58.13;100074.38;4950376;28;20055;-93
2023/09/08 11:23:31;;;;;;;5.75;5.20;;;;;;;23.30;58.35;100075.81;4944959;28;20046;-92
2023/09/08 11:25:59;;;;;;;7.40;5.63;;;;;;;23.32;58.43;100073.72;4929280;28;20062;-91
2023/09/08 11:28:29;;;;;;;8.70;5.38;;;;;;;23.34;57.74;100070.81;4971836;28;20106;-92